Billings Logan International Airport
KBIL : now visible

Airfield :











YOU CAN JOIN US ON...

 
LOGIN :

Register | Disclaimer

   EN    FR    IT 

 









Legend :    VFR   Marginal VFR   IFR   Intensive IFR   Very Intensive IFR
Visi :
Ceiling :
>= 8 km
>= 3000ft
5 to 8 km
1000 to 3000 ft
1500m to 5 km
500 to 1000 ft
800 to 1500m
200 to 500 ft
< 800m
< 200 ft
Symbols :   Thunderstorms  Fog  Heavy snow  Heavy precipitations  Wind > 20 kt






- Airport Elevation : 3652 ft
- IATA code : BIL


KBIL - Billings Logan International

CURRENT METAR :
  • 261653Z 22015KT 10SM FEW060 BKN085 BKN180 01/M10 A3019 RMK AO2 PK WND 23026/1612 SLP258 ACSL ALQDS T00061100

EXPIRED METARs :
  • 261553Z 23018G27KT 10SM FEW060 SCT085 BKN180 M02/M11 A3020 RMK AO2 PK WND 23027/1545 SLP264 ACSL DSNT W-N T10171111
  • 261453Z 23020G27KT 10SM BKN065 M02/M12 A3020 RMK AO2 PK WND 23027/1451 SLP266 SHSN DSNT N-SW ACSL DSNT NW-N T10221117 58005

TAF KBIL
Valid from the 26 at 12:00 until the 27 at 12:00 UTC


261120Z 2612/2712 23018KT P6SM BKN110
FM270200 27012KT P6SM VCSH BKN050



MET'MAP, your aeronautical weather chart ! - Copyright ORBIFLY December 2007 - Disclaimer

ORBIFLY MET'MAP TEAM :

Programming & Development : Alexandra Zaïnal
Concept & original design : Baudouin d'Aumeries
Assistance for programming : Marc-Olivier Méhu
Technical & hardware support : Manuel Goepfert

Contact : metmap@orbifly.com




SOURCES & CREDITS :

   NOAA       Earth
Advisory